sensor_id;sensor_type;location;lat;lon;timestamp;pressure;altitude;pressure_sealevel;temperature;humidity
77702;BME280;66868;42.708;23.404;2023-03-23T00:01:59;95151.28;;;5.96;98.58
77702;BME280;66868;42.708;23.404;2023-03-23T00:04:24;95154.59;;;5.96;98.11
77702;BME280;66868;42.708;23.404;2023-03-23T00:06:52;95162.94;;;5.97;97.62
77702;BME280;66868;42.708;23.404;2023-03-23T00:09:17;95146.34;;;5.71;99.80
77702;BME280;66868;42.708;23.404;2023-03-23T00:11:49;95153.72;;;5.75;100.00
77702;BME280;66868;42.708;23.404;2023-03-23T00:14:15;95140.91;;;5.82;99.79
77702;BME280;66868;42.708;23.404;2023-03-23T00:16:41;95153.78;;;5.96;99.39
77702;BME280;66868;42.708;23.404;2023-03-23T00:19:10;95161.06;;;6.02;99.63
77702;BME280;66868;42.708;23.404;2023-03-23T00:21:39;95163.50;;;6.03;99.13
77702;BME280;66868;42.708;23.404;2023-03-23T00:24:10;95165.84;;;6.08;98.40
77702;BME280;66868;42.708;23.404;2023-03-23T00:26:37;95152.59;;;6.04;98.51
77702;BME280;66868;42.708;23.404;2023-03-23T00:31:58;95165.72;;;6.11;96.46
77702;BME280;66868;42.708;23.404;2023-03-23T00:34:24;95170.69;;;6.12;95.98
77702;BME280;66868;42.708;23.404;2023-03-23T00:36:52;95169.00;;;6.13;95.88
77702;BME280;66868;42.708;23.404;2023-03-23T00:39:22;95177.28;;;6.15;96.25
77702;BME280;66868;42.708;23.404;2023-03-23T00:41:49;95174.84;;;6.13;96.30
77702;BME280;66868;42.708;23.404;2023-03-23T00:44:15;95177.28;;;6.15;95.67
77702;BME280;66868;42.708;23.404;2023-03-23T00:46:47;95172.13;;;6.18;95.72
77702;BME280;66868;42.708;23.404;2023-03-23T00:49:16;95172.97;;;5.97;97.76
77702;BME280;66868;42.708;23.404;2023-03-23T00:51:43;95150.09;;;5.83;96.82
77702;BME280;66868;42.708;23.404;2023-03-23T00:54:09;95167.84;;;6.00;97.39
77702;BME280;66868;42.708;23.404;2023-03-23T00:56:38;95136.56;;;5.87;96.71
77702;BME280;66868;42.708;23.404;2023-03-23T00:59:07;95108.75;;;5.69;95.54
77702;BME280;66868;42.708;23.404;2023-03-23T01:01:33;95129.59;;;5.93;95.16
77702;BME280;66868;42.708;23.404;2023-03-23T01:03:59;95154.16;;;6.07;95.60
77702;BME280;66868;42.708;23.404;2023-03-23T01:06:30;95165.72;;;6.11;95.57
77702;BME280;66868;42.708;23.404;2023-03-23T01:08:57;95148.50;;;6.02;95.61
77702;BME280;66868;42.708;23.404;2023-03-23T01:11:23;95148.94;;;5.91;95.14
77702;BME280;66868;42.708;23.404;2023-03-23T01:13:49;95164.84;;;5.92;95.21
77702;BME280;66868;42.708;23.404;2023-03-23T01:16:15;95162.38;;;5.90;95.40
77702;BME280;66868;42.708;23.404;2023-03-23T01:18:41;95117.63;;;5.56;95.31
77702;BME280;66868;42.708;23.404;2023-03-23T01:21:16;95161.19;;;5.77;94.88
77702;BME280;66868;42.708;23.404;2023-03-23T01:23:43;95157.13;;;5.53;95.36
77702;BME280;66868;42.708;23.404;2023-03-23T01:26:27;95153.72;;;5.54;95.02
77702;BME280;66868;42.708;23.404;2023-03-23T01:28:53;95149.34;;;5.59;95.70
77702;BME280;66868;42.708;23.404;2023-03-23T01:31:21;95144.25;;;5.60;96.14
77702;BME280;66868;42.708;23.404;2023-03-23T01:33:47;95152.78;;;5.56;96.62
77702;BME280;66868;42.708;23.404;2023-03-23T01:36:15;95130.72;;;5.43;97.36
77702;BME280;66868;42.708;23.404;2023-03-23T01:38:43;95147.03;;;5.54;97.03
77702;BME280;66868;42.708;23.404;2023-03-23T01:41:09;95131.59;;;5.42;97.00
77702;BME280;66868;42.708;23.404;2023-03-23T01:43:36;95143.22;;;5.44;98.25
77702;BME280;66868;42.708;23.404;2023-03-23T01:46:01;95115.38;;;5.28;99.03
77702;BME280;66868;42.708;23.404;2023-03-23T01:48:32;95147.28;;;5.47;99.26
77702;BME280;66868;42.708;23.404;2023-03-23T01:53:34;95146.34;;;5.27;100.00
77702;BME280;66868;42.708;23.404;2023-03-23T01:56:02;95128.97;;;5.23;100.00
77702;BME280;66868;42.708;23.404;2023-03-23T01:58:31;95148.97;;;5.46;100.00
77702;BME280;66868;42.708;23.404;2023-03-23T02:00:58;95135.63;;;5.46;99.95
77702;BME280;66868;42.708;23.404;2023-03-23T02:03:27;95146.13;;;5.55;99.78
77702;BME280;66868;42.708;23.404;2023-03-23T02:05:54;95147.88;;;5.53;99.20
77702;BME280;66868;42.708;23.404;2023-03-23T02:08:24;95151.97;;;5.56;98.84
77702;BME280;66868;42.708;23.404;2023-03-23T02:10:52;95150.19;;;5.59;97.96
77702;BME280;66868;42.708;23.404;2023-03-23T02:13:17;95153.03;;;5.50;97.98
77702;BME280;66868;42.708;23.404;2023-03-23T02:16:07;95137.59;;;5.16;98.78
77702;BME280;66868;42.708;23.404;2023-03-23T02:24:58;95141.81;;;5.37;97.57
77702;BME280;66868;42.708;23.404;2023-03-23T02:28:00;95136.09;;;5.33;96.73
77702;BME280;66868;42.708;23.404;2023-03-23T02:41:40;95163.66;;;5.35;94.96
77702;BME280;66868;42.708;23.404;2023-03-23T02:44:08;95143.44;;;5.38;94.34
77702;BME280;66868;42.708;23.404;2023-03-23T02:46:35;95111.88;;;5.11;93.51
77702;BME280;66868;42.708;23.404;2023-03-23T02:49:03;95159.38;;;5.37;92.95
77702;BME280;66868;42.708;23.404;2023-03-23T02:51:32;95164.97;;;5.22;93.38
77702;BME280;66868;42.708;23.404;2023-03-23T02:53:59;95167.50;;;5.22;93.34
77702;BME280;66868;42.708;23.404;2023-03-23T02:56:26;95173.25;;;5.24;92.69
77702;BME280;66868;42.708;23.404;2023-03-23T02:58:54;95173.38;;;5.21;92.72
77702;BME280;66868;42.708;23.404;2023-03-23T03:03:52;95190.66;;;5.28;92.84
77702;BME280;66868;42.708;23.404;2023-03-23T03:06:29;95190.78;;;5.25;92.58
77702;BME280;66868;42.708;23.404;2023-03-23T03:11:48;95200.66;;;5.30;93.08
77702;BME280;66868;42.708;23.404;2023-03-23T03:14:44;95172.03;;;5.12;92.91
77702;BME280;66868;42.708;23.404;2023-03-23T03:17:24;95197.97;;;5.34;93.49
77702;BME280;66868;42.708;23.404;2023-03-23T03:19:54;95182.44;;;5.25;92.92
77702;BME280;66868;42.708;23.404;2023-03-23T03:22:23;95201.03;;;5.41;93.76
77702;BME280;66868;42.708;23.404;2023-03-23T03:24:50;95187.22;;;5.31;93.34
77702;BME280;66868;42.708;23.404;2023-03-23T03:27:18;95205.09;;;5.45;93.63
77702;BME280;66868;42.708;23.404;2023-03-23T03:29:47;95211.88;;;5.43;93.53
77702;BME280;66868;42.708;23.404;2023-03-23T03:32:19;95211.09;;;5.41;94.00
77702;BME280;66868;42.708;23.404;2023-03-23T03:34:48;95198.97;;;5.30;93.98
77702;BME280;66868;42.708;23.404;2023-03-23T03:37:16;95206.50;;;5.30;94.29
77702;BME280;66868;42.708;23.404;2023-03-23T03:39:42;95193.41;;;5.22;94.55
77702;BME280;66868;42.708;23.404;2023-03-23T03:42:08;95203.97;;;5.30;94.71
77702;BME280;66868;42.708;23.404;2023-03-23T03:44:34;95214.72;;;5.34;94.74
77702;BME280;66868;42.708;23.404;2023-03-23T03:47:00;95211.16;;;5.40;94.31
77702;BME280;66868;42.708;23.404;2023-03-23T03:49:26;95199.25;;;5.45;94.00
77702;BME280;66868;42.708;23.404;2023-03-23T03:51:52;95189.31;;;5.42;94.68
77702;BME280;66868;42.708;23.404;2023-03-23T03:54:17;95172.25;;;5.28;94.51
77702;BME280;66868;42.708;23.404;2023-03-23T03:56:43;95130.41;;;5.07;94.52
77702;BME280;66868;42.708;23.404;2023-03-23T03:59:09;95199.19;;;5.46;94.44
77702;BME280;66868;42.708;23.404;2023-03-23T04:01:37;95196.69;;;5.46;95.17
77702;BME280;66868;42.708;23.404;2023-03-23T04:04:04;95185.13;;;5.42;95.22
77702;BME280;66868;42.708;23.404;2023-03-23T04:06:32;95194.81;;;5.51;95.09
77702;BME280;66868;42.708;23.404;2023-03-23T04:09:02;95189.78;;;5.51;95.65
77702;BME280;66868;42.708;23.404;2023-03-23T04:11:31;95180.88;;;5.44;95.23
77702;BME280;66868;42.708;23.404;2023-03-23T04:13:56;95198.97;;;5.52;94.81
77702;BME280;66868;42.708;23.404;2023-03-23T04:16:22;95196.47;;;5.52;95.13
77702;BME280;66868;42.708;23.404;2023-03-23T04:18:48;95193.75;;;5.35;95.86
77702;BME280;66868;42.708;23.404;2023-03-23T04:21:13;95192.81;;;5.38;96.25
77702;BME280;66868;42.708;23.404;2023-03-23T04:23:39;95184.06;;;5.26;95.93
77702;BME280;66868;42.708;23.404;2023-03-23T04:26:05;95188.97;;;5.29;96.09
77702;BME280;66868;42.708;23.404;2023-03-23T04:28:31;95192.00;;;5.37;96.00
77702;BME280;66868;42.708;23.404;2023-03-23T04:31:00;95205.09;;;5.45;95.99
77702;BME280;66868;42.708;23.404;2023-03-23T04:33:26;95198.44;;;5.44;95.60
77702;BME280;66868;42.708;23.404;2023-03-23T04:35:56;95205.38;;;5.14;97.15
77702;BME280;66868;42.708;23.404;2023-03-23T04:38:22;95200.00;;;5.25;97.29
77702;BME280;66868;42.708;23.404;2023-03-23T04:40:49;95201.03;;;5.41;96.83
77702;BME280;66868;42.708;23.404;2023-03-23T04:43:18;95184.47;;;5.37;96.90
77702;BME280;66868;42.708;23.404;2023-03-23T04:45:47;95205.50;;;5.56;96.86
77702;BME280;66868;42.708;23.404;2023-03-23T04:48:17;95212.81;;;5.62;96.60
77702;BME280;66868;42.708;23.404;2023-03-23T04:50:43;95209.78;;;5.54;96.76
77702;BME280;66868;42.708;23.404;2023-03-23T04:53:08;95207.50;;;5.48;97.45
77702;BME280;66868;42.708;23.404;2023-03-23T04:55:36;95205.19;;;5.42;97.46
77702;BME280;66868;42.708;23.404;2023-03-23T04:58:06;95212.94;;;5.59;97.12
77702;BME280;66868;42.708;23.404;2023-03-23T05:00:32;95217.88;;;5.16;99.19
77702;BME280;66868;42.708;23.404;2023-03-23T05:02:58;95217.72;;;5.20;99.50
77702;BME280;66868;42.708;23.404;2023-03-23T05:05:24;95221.63;;;5.27;99.40
77702;BME280;66868;42.708;23.404;2023-03-23T05:07:51;95210.41;;;5.38;98.75
77702;BME280;66868;42.708;23.404;2023-03-23T05:10:17;95212.56;;;5.47;98.20
77702;BME280;66868;42.708;23.404;2023-03-23T05:12:42;95232.28;;;5.34;99.33
77702;BME280;66868;42.708;23.404;2023-03-23T05:15:09;95233.16;;;5.10;100.00
77702;BME280;66868;42.708;23.404;2023-03-23T05:17:35;95226.03;;;5.22;100.00
77702;BME280;66868;42.708;23.404;2023-03-23T05:20:05;95235.97;;;5.01;100.00
77702;BME280;66868;42.708;23.404;2023-03-23T05:22:34;95244.66;;;4.92;100.00
77702;BME280;66868;42.708;23.404;2023-03-23T05:25:00;95241.91;;;4.75;100.00
77702;BME280;66868;42.708;23.404;2023-03-23T05:27:28;95244.56;;;4.70;100.00
77702;BME280;66868;42.708;23.404;2023-03-23T05:29:56;95229.72;;;4.64;100.00
77702;BME280;66868;42.708;23.404;2023-03-23T05:32:24;95246.09;;;4.74;100.00
77702;BME280;66868;42.708;23.404;2023-03-23T05:34:57;95241.63;;;4.82;100.00
77702;BME280;66868;42.708;23.404;2023-03-23T05:37:24;95188.72;;;4.42;100.00
77702;BME280;66868;42.708;23.404;2023-03-23T05:39:50;95239.09;;;4.59;100.00
77702;BME280;66868;42.708;23.404;2023-03-23T05:42:20;95243.56;;;4.76;100.00
77702;BME280;66868;42.708;23.404;2023-03-23T05:44:46;95249.59;;;4.70;100.00
77702;BME280;66868;42.708;23.404;2023-03-23T05:47:11;95254.50;;;4.73;100.00
77702;BME280;66868;42.708;23.404;2023-03-23T05:49:37;95264.69;;;4.94;100.00
77702;BME280;66868;42.708;23.404;2023-03-23T05:52:03;95257.97;;;4.94;100.00
77702;BME280;66868;42.708;23.404;2023-03-23T05:54:29;95273.94;;;4.92;100.00
77702;BME280;66868;42.708;23.404;2023-03-23T05:56:54;95239.09;;;5.07;100.00
77702;BME280;66868;42.708;23.404;2023-03-23T05:59:19;95256.00;;;5.49;99.30
77702;BME280;66868;42.708;23.404;2023-03-23T06:01:45;95262.59;;;5.28;98.81
77702;BME280;66868;42.708;23.404;2023-03-23T06:04:11;95258.03;;;5.16;99.52
77702;BME280;66868;42.708;23.404;2023-03-23T06:06:38;95264.63;;;5.18;100.00
77702;BME280;66868;42.708;23.404;2023-03-23T06:09:04;95266.22;;;5.44;99.78
77702;BME280;66868;42.708;23.404;2023-03-23T06:11:30;95262.81;;;5.68;98.79
77702;BME280;66868;42.708;23.404;2023-03-23T06:13:55;95252.03;;;5.43;99.12
77702;BME280;66868;42.708;23.404;2023-03-23T06:16:21;95269.06;;;5.58;98.96
77702;BME280;66868;42.708;23.404;2023-03-23T06:18:46;95262.94;;;5.42;99.02
77702;BME280;66868;42.708;23.404;2023-03-23T06:21:13;95251.16;;;5.21;100.00
77702;BME280;66868;42.708;23.404;2023-03-23T06:23:39;95264.94;;;5.32;100.00
77702;BME280;66868;42.708;23.404;2023-03-23T06:26:07;95259.84;;;5.36;100.00
77702;BME280;66868;42.708;23.404;2023-03-23T06:28:34;95269.75;;;5.62;99.82
77702;BME280;66868;42.708;23.404;2023-03-23T06:31:05;95262.56;;;5.74;99.51
77702;BME280;66868;42.708;23.404;2023-03-23T06:33:35;95279.31;;;5.97;100.00
77702;BME280;66868;42.708;23.404;2023-03-23T06:36:01;95275.34;;;6.13;100.00
77702;BME280;66868;42.708;23.404;2023-03-23T06:38:27;95249.59;;;6.08;99.49
77702;BME280;66868;42.708;23.404;2023-03-23T06:40:53;95273.97;;;6.48;98.29
77702;BME280;66868;42.708;23.404;2023-03-23T06:43:19;95274.13;;;6.65;97.83
77702;BME280;66868;42.708;23.404;2023-03-23T06:45:45;95284.53;;;6.56;97.36
77702;BME280;66868;42.708;23.404;2023-03-23T06:48:10;95282.41;;;6.68;96.05
77702;BME280;66868;42.708;23.404;2023-03-23T06:50:35;95291.91;;;6.81;95.79
77702;BME280;66868;42.708;23.404;2023-03-23T06:53:01;95285.41;;;6.76;96.43
77702;BME280;66868;42.708;23.404;2023-03-23T06:55:27;95288.69;;;6.78;96.54
77702;BME280;66868;42.708;23.404;2023-03-23T06:57:52;95289.88;;;6.89;96.46
77702;BME280;66868;42.708;23.404;2023-03-23T07:00:18;95278.50;;;6.81;96.54
77702;BME280;66868;42.708;23.404;2023-03-23T07:02:43;95298.13;;;6.93;95.98
77702;BME280;66868;42.708;23.404;2023-03-23T07:05:10;95288.06;;;6.93;95.97
77702;BME280;66868;42.708;23.404;2023-03-23T07:07:37;95295.16;;;7.03;95.19
77702;BME280;66868;42.708;23.404;2023-03-23T07:10:04;95288.31;;;6.87;96.21
77702;BME280;66868;42.708;23.404;2023-03-23T07:12:31;95276.59;;;6.86;97.10
77702;BME280;66868;42.708;23.404;2023-03-23T07:14:56;95291.81;;;7.03;97.09
77702;BME280;66868;42.708;23.404;2023-03-23T07:17:22;95281.97;;;7.17;96.15
77702;BME280;66868;42.708;23.404;2023-03-23T07:19:47;95291.88;;;7.40;95.70
77702;BME280;66868;42.708;23.404;2023-03-23T07:22:12;95282.72;;;7.39;95.30
77702;BME280;66868;42.708;23.404;2023-03-23T07:24:38;95295.38;;;7.57;95.49
77702;BME280;66868;42.708;23.404;2023-03-23T07:27:03;95293.88;;;7.52;95.80
77702;BME280;66868;42.708;23.404;2023-03-23T07:29:36;95282.19;;;7.51;94.85
77702;BME280;66868;42.708;23.404;2023-03-23T07:32:04;95284.97;;;7.64;95.19
77702;BME280;66868;42.708;23.404;2023-03-23T07:34:30;95244.41;;;7.51;95.24
77702;BME280;66868;42.708;23.404;2023-03-23T07:36:57;95285.84;;;7.82;94.83
77702;BME280;66868;42.708;23.404;2023-03-23T07:39:22;95293.91;;;7.90;95.63
77702;BME280;66868;42.708;23.404;2023-03-23T07:41:49;95289.09;;;8.03;94.88
77702;BME280;66868;42.708;23.404;2023-03-23T07:44:14;95297.94;;;8.11;94.83
77702;BME280;66868;42.708;23.404;2023-03-23T07:46:40;95300.03;;;8.20;94.83
77702;BME280;66868;42.708;23.404;2023-03-23T07:49:07;95299.00;;;8.24;94.96
77702;BME280;66868;42.708;23.404;2023-03-23T07:51:33;95291.88;;;8.34;94.50
77702;BME280;66868;42.708;23.404;2023-03-23T07:53:59;95302.66;;;8.55;95.17
77702;BME280;66868;42.708;23.404;2023-03-23T07:56:25;95298.94;;;8.62;94.18
77702;BME280;66868;42.708;23.404;2023-03-23T07:58:51;95290.34;;;8.66;94.25
77702;BME280;66868;42.708;23.404;2023-03-23T08:01:16;95302.81;;;8.86;93.84
77702;BME280;66868;42.708;23.404;2023-03-23T08:03:42;95307.25;;;8.98;93.41
77702;BME280;66868;42.708;23.404;2023-03-23T08:06:08;95277.28;;;8.92;92.84
77702;BME280;66868;42.708;23.404;2023-03-23T08:08:35;95308.16;;;9.30;90.88
77702;BME280;66868;42.708;23.404;2023-03-23T08:11:01;95309.44;;;9.39;90.71
77702;BME280;66868;42.708;23.404;2023-03-23T08:13:26;95300.56;;;9.47;90.39
77702;BME280;66868;42.708;23.404;2023-03-23T08:15:51;95306.75;;;9.57;90.60
77702;BME280;66868;42.708;23.404;2023-03-23T08:18:17;95300.59;;;9.63;89.39
77702;BME280;66868;42.708;23.404;2023-03-23T08:20:43;95308.03;;;9.66;89.96
77702;BME280;66868;42.708;23.404;2023-03-23T08:23:10;95303.75;;;9.66;89.87
77702;BME280;66868;42.708;23.404;2023-03-23T08:25:36;95305.59;;;9.80;89.03
77702;BME280;66868;42.708;23.404;2023-03-23T08:28:03;95311.47;;;9.96;89.39
77702;BME280;66868;42.708;23.404;2023-03-23T08:30:29;95301.69;;;10.06;89.72
77702;BME280;66868;42.708;23.404;2023-03-23T08:32:56;95306.41;;;10.28;89.00
77702;BME280;66868;42.708;23.404;2023-03-23T08:35:22;95302.31;;;10.41;89.66
77702;BME280;66868;42.708;23.404;2023-03-23T08:37:48;95304.09;;;10.54;87.90
77702;BME280;66868;42.708;23.404;2023-03-23T08:40:19;95297.72;;;10.63;86.20
77702;BME280;66868;42.708;23.404;2023-03-23T08:42:47;95295.84;;;10.67;86.22
77702;BME280;66868;42.708;23.404;2023-03-23T08:45:16;95296.97;;;10.77;86.45
77702;BME280;66868;42.708;23.404;2023-03-23T08:47:43;95298.03;;;10.87;86.35
77702;BME280;66868;42.708;23.404;2023-03-23T08:50:13;95277.00;;;10.86;86.03
77702;BME280;66868;42.708;23.404;2023-03-23T08:52:38;95292.09;;;11.02;86.90
77702;BME280;66868;42.708;23.404;2023-03-23T08:55:05;95278.53;;;11.03;85.38
77702;BME280;66868;42.708;23.404;2023-03-23T08:57:31;95295.69;;;11.28;85.31
77702;BME280;66868;42.708;23.404;2023-03-23T08:59:56;95302.56;;;11.40;83.68
77702;BME280;66868;42.708;23.404;2023-03-23T09:02:26;95296.94;;;11.49;82.41
77702;BME280;66868;42.708;23.404;2023-03-23T09:04:52;95303.28;;;11.56;82.43
77702;BME280;66868;42.708;23.404;2023-03-23T09:07:18;95289.53;;;11.60;83.46
77702;BME280;66868;42.708;23.404;2023-03-23T09:09:43;95296.97;;;11.77;82.99
77702;BME280;66868;42.708;23.404;2023-03-23T09:12:10;95304.72;;;11.88;83.05
77702;BME280;66868;42.708;23.404;2023-03-23T09:14:36;95299.84;;;12.00;83.13
77702;BME280;66868;42.708;23.404;2023-03-23T09:17:02;95300.00;;;12.11;82.89
77702;BME280;66868;42.708;23.404;2023-03-23T09:19:29;95276.34;;;12.10;81.70
77702;BME280;66868;42.708;23.404;2023-03-23T09:21:56;95287.28;;;12.25;80.41
77702;BME280;66868;42.708;23.404;2023-03-23T09:24:21;95298.69;;;12.45;79.13
77702;BME280;66868;42.708;23.404;2023-03-23T09:26:47;95299.47;;;12.59;79.80
77702;BME280;66868;42.708;23.404;2023-03-23T09:29:13;95287.50;;;12.61;76.07
77702;BME280;66868;42.708;23.404;2023-03-23T09:31:39;95292.31;;;12.78;72.64
77702;BME280;66868;42.708;23.404;2023-03-23T09:34:07;95280.72;;;12.74;72.94
77702;BME280;66868;42.708;23.404;2023-03-23T09:36:35;95293.22;;;12.90;71.59
77702;BME280;66868;42.708;23.404;2023-03-23T09:39:01;95296.50;;;13.05;70.95
77702;BME280;66868;42.708;23.404;2023-03-23T09:49:56;95277.13;;;13.42;69.74
77702;BME280;66868;42.708;23.404;2023-03-23T09:52:38;95281.81;;;13.48;68.52
77702;BME280;66868;42.708;23.404;2023-03-23T09:55:07;95271.63;;;13.48;69.10
77702;BME280;66868;42.708;23.404;2023-03-23T09:57:41;95279.25;;;13.60;67.60
77702;BME280;66868;42.708;23.404;2023-03-23T10:05:36;95275.31;;;13.93;67.91
77702;BME280;66868;42.708;23.404;2023-03-23T10:08:10;95273.34;;;14.09;67.29
77702;BME280;66868;42.708;23.404;2023-03-23T10:16:01;95277.50;;;14.46;62.65
77702;BME280;66868;42.708;23.404;2023-03-23T10:18:41;95257.81;;;14.48;62.39
77702;BME280;66868;42.708;23.404;2023-03-23T10:21:14;95267.41;;;14.69;60.64
77702;BME280;66868;42.708;23.404;2023-03-23T10:26:30;95238.69;;;14.78;61.47
77702;BME280;66868;42.708;23.404;2023-03-23T10:34:52;95262.69;;;15.43;60.35
77702;BME280;66868;42.708;23.404;2023-03-23T10:37:24;95251.56;;;15.56;59.10
77702;BME280;66868;42.708;23.404;2023-03-23T10:39:55;95245.31;;;15.71;57.58
77702;BME280;66868;42.708;23.404;2023-03-23T10:42:33;95161.78;;;15.17;58.76
77702;BME280;66868;42.708;23.404;2023-03-23T10:45:20;95262.34;;;15.93;58.88
77702;BME280;66868;42.708;23.404;2023-03-23T10:48:13;95265.34;;;16.09;57.63
77702;BME280;66868;42.708;23.404;2023-03-23T10:50:41;95257.28;;;16.24;56.05
77702;BME280;66868;42.708;23.404;2023-03-23T10:53:37;95197.41;;;16.06;55.02
77702;BME280;66868;42.708;23.404;2023-03-23T10:56:03;95245.31;;;16.57;56.63
77702;BME280;66868;42.708;23.404;2023-03-23T10:58:34;95245.25;;;16.79;56.75
77702;BME280;66868;42.708;23.404;2023-03-23T11:01:03;95258.34;;;17.06;55.52
77702;BME280;66868;42.708;23.404;2023-03-23T11:03:38;95263.19;;;17.30;53.88
77702;BME280;66868;42.708;23.404;2023-03-23T11:06:12;95253.09;;;17.29;52.90
77702;BME280;66868;42.708;23.404;2023-03-23T11:08:51;95260.91;;;17.57;54.12
77702;BME280;66868;42.708;23.404;2023-03-23T11:11:31;95256.97;;;17.74;52.01
77702;BME280;66868;42.708;23.404;2023-03-23T11:14:11;95232.03;;;17.46;50.49
77702;BME280;66868;42.708;23.404;2023-03-23T11:19:38;95234.59;;;17.76;52.77
77702;BME280;66868;42.708;23.404;2023-03-23T11:24:45;95220.06;;;17.86;51.04
77702;BME280;66868;42.708;23.404;2023-03-23T11:27:11;95227.91;;;18.04;51.51
77702;BME280;66868;42.708;23.404;2023-03-23T11:29:52;95226.06;;;18.25;50.91
77702;BME280;66868;42.708;23.404;2023-03-23T11:32:22;95221.78;;;18.45;49.04
77702;BME280;66868;42.708;23.404;2023-03-23T11:37:44;95196.28;;;18.72;47.52
77702;BME280;66868;42.708;23.404;2023-03-23T11:40:18;95213.09;;;19.04;48.94
77702;BME280;66868;42.708;23.404;2023-03-23T11:42:50;95212.50;;;19.19;48.45
77702;BME280;66868;42.708;23.404;2023-03-23T11:45:30;95220.72;;;19.42;49.13
77702;BME280;66868;42.708;23.404;2023-03-23T11:48:06;95209.97;;;19.56;47.42
77702;BME280;66868;42.708;23.404;2023-03-23T11:50:51;95187.88;;;19.73;46.57
77702;BME280;66868;42.708;23.404;2023-03-23T11:56:08;95207.31;;;19.48;44.46
77702;BME280;66868;42.708;23.404;2023-03-23T11:58:36;95203.53;;;19.33;44.60
77702;BME280;66868;42.708;23.404;2023-03-23T12:01:06;95208.56;;;18.59;45.22
77702;BME280;66868;42.708;23.404;2023-03-23T12:06:43;95203.84;;;18.45;46.80
77702;BME280;66868;42.708;23.404;2023-03-23T12:12:08;95193.03;;;18.70;45.86
77702;BME280;66868;42.708;23.404;2023-03-23T12:17:50;95198.69;;;19.94;46.64
77702;BME280;66868;42.708;23.404;2023-03-23T12:20:31;95195.00;;;20.59;44.67
77702;BME280;66868;42.708;23.404;2023-03-23T12:26:00;95197.56;;;21.21;43.83
77702;BME280;66868;42.708;23.404;2023-03-23T12:44:53;95199.59;;;26.12;31.45
77702;BME280;66868;42.708;23.404;2023-03-23T12:55:49;95203.31;;;30.85;23.94
77702;BME280;66868;42.708;23.404;2023-03-23T12:58:21;95206.41;;;31.75;22.74
77702;BME280;66868;42.708;23.404;2023-03-23T13:00:56;95203.03;;;32.94;22.05
77702;BME280;66868;42.708;23.404;2023-03-23T13:06:22;95214.78;;;35.37;20.22
77702;BME280;66868;42.708;23.404;2023-03-23T13:08:54;95212.66;;;36.16;19.26
77702;BME280;66868;42.708;23.404;2023-03-23T13:14:02;95218.13;;;38.58;17.87
77702;BME280;66868;42.708;23.404;2023-03-23T13:16:53;95190.38;;;39.52;16.07
77702;BME280;66868;42.708;23.404;2023-03-23T13:22:41;95212.31;;;40.91;15.16
77702;BME280;66868;42.708;23.404;2023-03-23T13:25:14;95230.50;;;41.75;14.84
77702;BME280;66868;42.708;23.404;2023-03-23T13:27:41;95224.88;;;42.24;14.82
77702;BME280;66868;42.708;23.404;2023-03-23T13:30:19;95230.91;;;42.54;13.97
77702;BME280;66868;42.708;23.404;2023-03-23T13:32:49;95216.72;;;42.96;13.59
77702;BME280;66868;42.708;23.404;2023-03-23T13:35:17;95231.63;;;43.48;13.85
77702;BME280;66868;42.708;23.404;2023-03-23T13:37:48;95228.72;;;43.90;13.27
77702;BME280;66868;42.708;23.404;2023-03-23T13:40:25;95226.47;;;44.25;12.34
77702;BME280;66868;42.708;23.404;2023-03-23T13:42:55;95225.13;;;44.63;13.13
77702;BME280;66868;42.708;23.404;2023-03-23T13:45:42;95225.69;;;44.74;12.92
77702;BME280;66868;42.708;23.404;2023-03-23T13:48:21;95219.00;;;44.85;12.56
77702;BME280;66868;42.708;23.404;2023-03-23T13:50:58;95206.13;;;45.09;11.90
77702;BME280;66868;42.708;23.404;2023-03-23T13:56:07;95214.94;;;45.32;11.85
77702;BME280;66868;42.708;23.404;2023-03-23T13:58:49;95222.34;;;45.57;11.98
77702;BME280;66868;42.708;23.404;2023-03-23T14:01:18;95207.59;;;45.68;11.62
77702;BME280;66868;42.708;23.404;2023-03-23T14:03:49;95213.41;;;45.70;11.75
77702;BME280;66868;42.708;23.404;2023-03-23T14:06:21;95209.13;;;45.61;12.24
77702;BME280;66868;42.708;23.404;2023-03-23T14:08:52;95218.25;;;45.91;11.52
77702;BME280;66868;42.708;23.404;2023-03-23T14:11:27;95201.31;;;44.98;11.59
77702;BME280;66868;42.708;23.404;2023-03-23T14:16:23;95202.84;;;45.65;11.84
77702;BME280;66868;42.708;23.404;2023-03-23T14:18:57;95180.06;;;44.93;11.52
77702;BME280;66868;42.708;23.404;2023-03-23T14:21:36;95198.47;;;44.94;11.99
77702;BME280;66868;42.708;23.404;2023-03-23T14:24:08;95195.09;;;45.33;11.69
77702;BME280;66868;42.708;23.404;2023-03-23T14:26:34;95193.19;;;45.56;11.98
77702;BME280;66868;42.708;23.404;2023-03-23T14:29:02;95177.75;;;45.53;11.75
77702;BME280;66868;42.708;23.404;2023-03-23T14:31:28;95197.81;;;45.64;11.15
77702;BME280;66868;42.708;23.404;2023-03-23T14:33:56;95202.16;;;45.82;11.46
77702;BME280;66868;42.708;23.404;2023-03-23T14:36:29;95200.41;;;45.78;11.78
77702;BME280;66868;42.708;23.404;2023-03-23T14:39:21;95191.84;;;45.67;11.94
77702;BME280;66868;42.708;23.404;2023-03-23T14:41:48;95202.16;;;45.51;11.50
77702;BME280;66868;42.708;23.404;2023-03-23T14:44:17;95191.72;;;45.41;11.36
77702;BME280;66868;42.708;23.404;2023-03-23T14:46:45;95197.91;;;45.50;11.45
77702;BME280;66868;42.708;23.404;2023-03-23T14:49:14;95199.66;;;45.33;11.23
77702;BME280;66868;42.708;23.404;2023-03-23T14:51:53;95199.28;;;44.95;11.97
77702;BME280;66868;42.708;23.404;2023-03-23T14:54:25;95167.59;;;44.30;12.19
77702;BME280;66868;42.708;23.404;2023-03-23T14:56:51;95185.41;;;44.21;12.40
77702;BME280;66868;42.708;23.404;2023-03-23T14:59:16;95181.63;;;44.22;12.31
77702;BME280;66868;42.708;23.404;2023-03-23T15:01:43;95181.81;;;43.84;11.99
77702;BME280;66868;42.708;23.404;2023-03-23T15:04:16;95183.31;;;43.49;12.60